sensor_id;sensor_type;location;lat;lon;timestamp;temperature;humidity
48988;DHT22;34799;51.440;-2.534;2023-06-19T00:00:52;17.40;99.90
48988;DHT22;34799;51.440;-2.534;2023-06-19T00:03:19;17.40;99.90
48988;DHT22;34799;51.440;-2.534;2023-06-19T00:05:47;17.30;99.90
48988;DHT22;34799;51.440;-2.534;2023-06-19T00:08:15;17.30;99.90
48988;DHT22;34799;51.440;-2.534;2023-06-19T00:10:43;17.30;99.90
48988;DHT22;34799;51.440;-2.534;2023-06-19T00:13:10;17.30;99.90
48988;DHT22;34799;51.440;-2.534;2023-06-19T00:15:37;17.30;99.90
48988;DHT22;34799;51.440;-2.534;2023-06-19T00:18:04;17.30;99.90
48988;DHT22;34799;51.440;-2.534;2023-06-19T00:20:33;17.30;99.90
48988;DHT22;34799;51.440;-2.534;2023-06-19T00:23:02;17.30;99.90
48988;DHT22;34799;51.440;-2.534;2023-06-19T00:25:29;17.20;99.90
48988;DHT22;34799;51.440;-2.534;2023-06-19T00:27:56;17.20;99.90
48988;DHT22;34799;51.440;-2.534;2023-06-19T00:30:24;17.20;99.90
48988;DHT22;34799;51.440;-2.534;2023-06-19T00:32:53;17.10;99.90
48988;DHT22;34799;51.440;-2.534;2023-06-19T00:35:20;17.10;99.90
48988;DHT22;34799;51.440;-2.534;2023-06-19T00:37:48;17.10;99.90
48988;DHT22;34799;51.440;-2.534;2023-06-19T00:42:55;17.10;99.90
48988;DHT22;34799;51.440;-2.534;2023-06-19T00:45:22;17.00;99.90
48988;DHT22;34799;51.440;-2.534;2023-06-19T00:47:55;17.00;99.90
48988;DHT22;34799;51.440;-2.534;2023-06-19T00:50:23;16.90;99.90
48988;DHT22;34799;51.440;-2.534;2023-06-19T00:52:51;16.90;99.90
48988;DHT22;34799;51.440;-2.534;2023-06-19T00:55:18;16.90;99.90
48988;DHT22;34799;51.440;-2.534;2023-06-19T00:57:46;16.80;99.90
48988;DHT22;34799;51.440;-2.534;2023-06-19T01:00:13;16.80;99.90
48988;DHT22;34799;51.440;-2.534;2023-06-19T01:02:43;16.80;99.90
48988;DHT22;34799;51.440;-2.534;2023-06-19T01:05:10;16.80;99.90
48988;DHT22;34799;51.440;-2.534;2023-06-19T01:10:35;16.80;99.90
48988;DHT22;34799;51.440;-2.534;2023-06-19T01:13:27;16.70;99.90
48988;DHT22;34799;51.440;-2.534;2023-06-19T01:15:56;16.70;99.90
48988;DHT22;34799;51.440;-2.534;2023-06-19T01:18:24;16.70;99.90
48988;DHT22;34799;51.440;-2.534;2023-06-19T01:20:52;16.70;99.90
48988;DHT22;34799;51.440;-2.534;2023-06-19T01:23:19;16.70;99.90
48988;DHT22;34799;51.440;-2.534;2023-06-19T01:25:48;16.60;99.90
48988;DHT22;34799;51.440;-2.534;2023-06-19T01:28:16;16.60;99.90
48988;DHT22;34799;51.440;-2.534;2023-06-19T01:30:43;16.70;99.90
48988;DHT22;34799;51.440;-2.534;2023-06-19T01:33:22;16.40;99.90
48988;DHT22;34799;51.440;-2.534;2023-06-19T01:35:54;16.50;99.90
48988;DHT22;34799;51.440;-2.534;2023-06-19T01:38:23;16.50;99.90
48988;DHT22;34799;51.440;-2.534;2023-06-19T01:40:55;16.50;99.90
48988;DHT22;34799;51.440;-2.534;2023-06-19T01:43:25;16.50;99.90
48988;DHT22;34799;51.440;-2.534;2023-06-19T01:45:53;16.50;99.90
48988;DHT22;34799;51.440;-2.534;2023-06-19T01:48:20;16.40;99.90
48988;DHT22;34799;51.440;-2.534;2023-06-19T01:50:48;16.40;99.90
48988;DHT22;34799;51.440;-2.534;2023-06-19T01:53:15;16.40;99.90
48988;DHT22;34799;51.440;-2.534;2023-06-19T01:55:43;16.40;99.90
48988;DHT22;34799;51.440;-2.534;2023-06-19T01:58:10;16.40;99.90
48988;DHT22;34799;51.440;-2.534;2023-06-19T02:00:37;16.50;99.90
48988;DHT22;34799;51.440;-2.534;2023-06-19T02:03:05;16.40;99.90
48988;DHT22;34799;51.440;-2.534;2023-06-19T02:05:33;16.50;99.90
48988;DHT22;34799;51.440;-2.534;2023-06-19T02:08:01;16.40;99.90
48988;DHT22;34799;51.440;-2.534;2023-06-19T02:10:28;16.40;99.90
48988;DHT22;34799;51.440;-2.534;2023-06-19T02:12:55;16.30;99.90
48988;DHT22;34799;51.440;-2.534;2023-06-19T02:15:22;16.30;99.90
48988;DHT22;34799;51.440;-2.534;2023-06-19T02:17:49;16.20;99.90
48988;DHT22;34799;51.440;-2.534;2023-06-19T02:20:24;16.30;99.90
48988;DHT22;34799;51.440;-2.534;2023-06-19T02:22:55;16.30;99.90
48988;DHT22;34799;51.440;-2.534;2023-06-19T02:25:23;16.30;99.90
48988;DHT22;34799;51.440;-2.534;2023-06-19T02:27:50;16.20;99.90
48988;DHT22;34799;51.440;-2.534;2023-06-19T02:30:17;16.20;99.90
48988;DHT22;34799;51.440;-2.534;2023-06-19T02:32:44;16.20;99.90
48988;DHT22;34799;51.440;-2.534;2023-06-19T02:35:11;16.20;99.90
48988;DHT22;34799;51.440;-2.534;2023-06-19T02:37:38;16.20;99.90
48988;DHT22;34799;51.440;-2.534;2023-06-19T02:40:08;16.20;99.90
48988;DHT22;34799;51.440;-2.534;2023-06-19T02:42:37;16.20;99.90
48988;DHT22;34799;51.440;-2.534;2023-06-19T02:45:04;16.20;99.90
48988;DHT22;34799;51.440;-2.534;2023-06-19T02:47:34;16.20;99.90
48988;DHT22;34799;51.440;-2.534;2023-06-19T02:50:03;16.20;99.90
48988;DHT22;34799;51.440;-2.534;2023-06-19T02:52:32;16.20;99.90
48988;DHT22;34799;51.440;-2.534;2023-06-19T02:54:59;16.20;99.90
48988;DHT22;34799;51.440;-2.534;2023-06-19T02:57:26;16.20;99.90
48988;DHT22;34799;51.440;-2.534;2023-06-19T02:59:53;16.20;99.90
48988;DHT22;34799;51.440;-2.534;2023-06-19T03:02:21;16.20;99.90
48988;DHT22;34799;51.440;-2.534;2023-06-19T03:04:48;16.30;99.90
48988;DHT22;34799;51.440;-2.534;2023-06-19T03:07:16;16.20;99.90
48988;DHT22;34799;51.440;-2.534;2023-06-19T03:09:43;16.20;99.90
48988;DHT22;34799;51.440;-2.534;2023-06-19T03:12:10;16.20;99.90
48988;DHT22;34799;51.440;-2.534;2023-06-19T03:14:37;16.20;99.90
48988;DHT22;34799;51.440;-2.534;2023-06-19T03:17:05;16.10;99.90
48988;DHT22;34799;51.440;-2.534;2023-06-19T03:19:32;16.20;99.90
48988;DHT22;34799;51.440;-2.534;2023-06-19T03:21:59;16.20;99.90
48988;DHT22;34799;51.440;-2.534;2023-06-19T03:24:26;16.10;99.90
48988;DHT22;34799;51.440;-2.534;2023-06-19T03:27:03;16.10;99.90
48988;DHT22;34799;51.440;-2.534;2023-06-19T03:29:32;16.10;99.90
48988;DHT22;34799;51.440;-2.534;2023-06-19T03:32:05;16.10;99.90
48988;DHT22;34799;51.440;-2.534;2023-06-19T03:34:34;16.10;99.90
48988;DHT22;34799;51.440;-2.534;2023-06-19T03:37:06;16.10;99.90
48988;DHT22;34799;51.440;-2.534;2023-06-19T03:39:34;16.10;99.90
48988;DHT22;34799;51.440;-2.534;2023-06-19T03:42:05;16.10;99.90
48988;DHT22;34799;51.440;-2.534;2023-06-19T03:44:33;16.10;99.90
48988;DHT22;34799;51.440;-2.534;2023-06-19T03:47:00;16.10;99.90
48988;DHT22;34799;51.440;-2.534;2023-06-19T03:49:28;16.20;99.90
48988;DHT22;34799;51.440;-2.534;2023-06-19T03:51:55;16.20;99.90
48988;DHT22;34799;51.440;-2.534;2023-06-19T03:54:23;16.20;99.90
48988;DHT22;34799;51.440;-2.534;2023-06-19T03:56:52;16.20;99.90
48988;DHT22;34799;51.440;-2.534;2023-06-19T03:59:19;16.20;99.90
48988;DHT22;34799;51.440;-2.534;2023-06-19T04:01:46;16.20;99.90
48988;DHT22;34799;51.440;-2.534;2023-06-19T04:04:13;16.20;99.90
48988;DHT22;34799;51.440;-2.534;2023-06-19T04:06:41;16.30;99.90
48988;DHT22;34799;51.440;-2.534;2023-06-19T04:09:09;16.40;99.90
48988;DHT22;34799;51.440;-2.534;2023-06-19T04:11:37;16.30;99.90
48988;DHT22;34799;51.440;-2.534;2023-06-19T04:14:04;16.40;99.90
48988;DHT22;34799;51.440;-2.534;2023-06-19T04:16:31;16.40;99.90
48988;DHT22;34799;51.440;-2.534;2023-06-19T04:18:58;16.50;99.90
48988;DHT22;34799;51.440;-2.534;2023-06-19T04:21:26;16.50;99.90
48988;DHT22;34799;51.440;-2.534;2023-06-19T04:23:53;16.50;99.90
48988;DHT22;34799;51.440;-2.534;2023-06-19T04:26:20;16.60;99.90
48988;DHT22;34799;51.440;-2.534;2023-06-19T04:28:48;16.70;99.90
48988;DHT22;34799;51.440;-2.534;2023-06-19T04:31:15;16.70;99.90
48988;DHT22;34799;51.440;-2.534;2023-06-19T04:33:47;16.80;99.90
48988;DHT22;34799;51.440;-2.534;2023-06-19T04:36:14;16.80;99.90
48988;DHT22;34799;51.440;-2.534;2023-06-19T04:38:42;16.90;99.90
48988;DHT22;34799;51.440;-2.534;2023-06-19T04:41:09;16.90;99.90
48988;DHT22;34799;51.440;-2.534;2023-06-19T04:43:36;16.90;99.90
48988;DHT22;34799;51.440;-2.534;2023-06-19T04:46:03;17.00;99.90
48988;DHT22;34799;51.440;-2.534;2023-06-19T04:48:30;17.00;99.90
48988;DHT22;34799;51.440;-2.534;2023-06-19T04:50:57;17.10;99.90
48988;DHT22;34799;51.440;-2.534;2023-06-19T04:53:27;17.10;99.90
48988;DHT22;34799;51.440;-2.534;2023-06-19T04:55:54;17.10;99.90
48988;DHT22;34799;51.440;-2.534;2023-06-19T04:58:22;17.20;99.90
48988;DHT22;34799;51.440;-2.534;2023-06-19T05:00:51;17.20;99.90
48988;DHT22;34799;51.440;-2.534;2023-06-19T05:03:19;17.20;99.90
48988;DHT22;34799;51.440;-2.534;2023-06-19T05:05:46;17.20;99.90
48988;DHT22;34799;51.440;-2.534;2023-06-19T05:08:13;17.30;99.90
48988;DHT22;34799;51.440;-2.534;2023-06-19T05:10:40;17.40;99.90
48988;DHT22;34799;51.440;-2.534;2023-06-19T05:13:08;17.40;99.90
48988;DHT22;34799;51.440;-2.534;2023-06-19T05:15:35;17.50;99.90
48988;DHT22;34799;51.440;-2.534;2023-06-19T05:18:02;17.40;99.90
48988;DHT22;34799;51.440;-2.534;2023-06-19T05:20:29;17.60;99.90
48988;DHT22;34799;51.440;-2.534;2023-06-19T05:22:56;17.70;99.90
48988;DHT22;34799;51.440;-2.534;2023-06-19T05:25:24;17.70;99.90
48988;DHT22;34799;51.440;-2.534;2023-06-19T05:27:51;17.90;99.90
48988;DHT22;34799;51.440;-2.534;2023-06-19T05:30:18;17.80;99.90
48988;DHT22;34799;51.440;-2.534;2023-06-19T05:32:45;17.80;99.90
48988;DHT22;34799;51.440;-2.534;2023-06-19T05:35:12;17.80;99.90
48988;DHT22;34799;51.440;-2.534;2023-06-19T05:37:43;18.00;99.90
48988;DHT22;34799;51.440;-2.534;2023-06-19T05:40:11;17.90;99.90
48988;DHT22;34799;51.440;-2.534;2023-06-19T05:42:38;18.00;99.90
48988;DHT22;34799;51.440;-2.534;2023-06-19T05:45:06;18.00;99.90
48988;DHT22;34799;51.440;-2.534;2023-06-19T05:47:33;18.00;99.90
48988;DHT22;34799;51.440;-2.534;2023-06-19T05:50:00;18.10;99.90
48988;DHT22;34799;51.440;-2.534;2023-06-19T05:52:27;18.10;99.90
48988;DHT22;34799;51.440;-2.534;2023-06-19T05:54:54;18.20;99.90
48988;DHT22;34799;51.440;-2.534;2023-06-19T05:57:21;18.20;99.90
48988;DHT22;34799;51.440;-2.534;2023-06-19T05:59:48;18.20;99.90
48988;DHT22;34799;51.440;-2.534;2023-06-19T06:02:17;18.30;99.90
48988;DHT22;34799;51.440;-2.534;2023-06-19T06:04:47;18.40;99.90
48988;DHT22;34799;51.440;-2.534;2023-06-19T06:07:15;18.40;99.90
48988;DHT22;34799;51.440;-2.534;2023-06-19T06:09:42;18.40;99.90
48988;DHT22;34799;51.440;-2.534;2023-06-19T06:12:09;18.40;99.90
48988;DHT22;34799;51.440;-2.534;2023-06-19T06:14:36;18.50;99.90
48988;DHT22;34799;51.440;-2.534;2023-06-19T06:17:03;18.50;99.90
48988;DHT22;34799;51.440;-2.534;2023-06-19T06:19:32;18.50;99.90
48988;DHT22;34799;51.440;-2.534;2023-06-19T06:21:59;18.50;99.90
48988;DHT22;34799;51.440;-2.534;2023-06-19T06:24:26;18.50;99.90
48988;DHT22;34799;51.440;-2.534;2023-06-19T06:26:54;18.50;99.90
48988;DHT22;34799;51.440;-2.534;2023-06-19T06:29:21;18.50;99.90
48988;DHT22;34799;51.440;-2.534;2023-06-19T06:31:49;18.60;99.90
48988;DHT22;34799;51.440;-2.534;2023-06-19T06:34:16;18.60;99.90
48988;DHT22;34799;51.440;-2.534;2023-06-19T06:36:44;18.60;99.90
48988;DHT22;34799;51.440;-2.534;2023-06-19T06:39:18;18.70;99.90
48988;DHT22;34799;51.440;-2.534;2023-06-19T06:41:46;18.80;99.90
48988;DHT22;34799;51.440;-2.534;2023-06-19T06:44:15;18.80;99.90
48988;DHT22;34799;51.440;-2.534;2023-06-19T06:46:42;18.80;99.90
48988;DHT22;34799;51.440;-2.534;2023-06-19T06:49:11;18.80;99.90
48988;DHT22;34799;51.440;-2.534;2023-06-19T06:51:38;18.80;99.90
48988;DHT22;34799;51.440;-2.534;2023-06-19T06:54:05;18.70;99.90
48988;DHT22;34799;51.440;-2.534;2023-06-19T06:56:32;18.70;99.90
48988;DHT22;34799;51.440;-2.534;2023-06-19T06:58:59;18.60;99.90
48988;DHT22;34799;51.440;-2.534;2023-06-19T07:01:26;18.60;99.90
48988;DHT22;34799;51.440;-2.534;2023-06-19T07:03:53;18.60;99.90
48988;DHT22;34799;51.440;-2.534;2023-06-19T07:06:21;18.60;99.90
48988;DHT22;34799;51.440;-2.534;2023-06-19T07:08:48;18.50;99.90
48988;DHT22;34799;51.440;-2.534;2023-06-19T07:11:15;18.50;99.90
48988;DHT22;34799;51.440;-2.534;2023-06-19T07:13:42;18.50;99.90
48988;DHT22;34799;51.440;-2.534;2023-06-19T07:16:09;18.50;99.90
48988;DHT22;34799;51.440;-2.534;2023-06-19T07:18:36;18.50;99.90
48988;DHT22;34799;51.440;-2.534;2023-06-19T07:21:11;18.60;99.90
48988;DHT22;34799;51.440;-2.534;2023-06-19T07:23:44;18.70;99.90
48988;DHT22;34799;51.440;-2.534;2023-06-19T07:26:12;18.80;99.90
48988;DHT22;34799;51.440;-2.534;2023-06-19T07:28:41;18.90;99.90
48988;DHT22;34799;51.440;-2.534;2023-06-19T07:31:08;19.00;99.90
48988;DHT22;34799;51.440;-2.534;2023-06-19T07:33:35;19.10;99.90
48988;DHT22;34799;51.440;-2.534;2023-06-19T07:36:02;19.20;99.90
48988;DHT22;34799;51.440;-2.534;2023-06-19T07:38:29;19.30;99.90
48988;DHT22;34799;51.440;-2.534;2023-06-19T07:40:56;19.40;99.90
48988;DHT22;34799;51.440;-2.534;2023-06-19T07:43:23;19.40;99.90
48988;DHT22;34799;51.440;-2.534;2023-06-19T07:45:51;19.50;99.90
48988;DHT22;34799;51.440;-2.534;2023-06-19T07:48:20;19.60;99.90
48988;DHT22;34799;51.440;-2.534;2023-06-19T07:50:47;19.60;99.90
48988;DHT22;34799;51.440;-2.534;2023-06-19T07:53:14;19.60;99.90
48988;DHT22;34799;51.440;-2.534;2023-06-19T07:55:41;19.60;99.90
48988;DHT22;34799;51.440;-2.534;2023-06-19T07:58:08;19.70;99.90
48988;DHT22;34799;51.440;-2.534;2023-06-19T08:00:35;19.80;99.90
48988;DHT22;34799;51.440;-2.534;2023-06-19T08:03:02;20.00;99.90
48988;DHT22;34799;51.440;-2.534;2023-06-19T08:05:29;20.20;99.90
48988;DHT22;34799;51.440;-2.534;2023-06-19T08:07:58;20.30;99.90
48988;DHT22;34799;51.440;-2.534;2023-06-19T08:10:26;20.50;99.90
48988;DHT22;34799;51.440;-2.534;2023-06-19T08:12:53;20.50;99.90
48988;DHT22;34799;51.440;-2.534;2023-06-19T08:15:20;20.60;99.90
48988;DHT22;34799;51.440;-2.534;2023-06-19T08:17:47;20.70;99.90
48988;DHT22;34799;51.440;-2.534;2023-06-19T08:20:15;20.70;99.90
48988;DHT22;34799;51.440;-2.534;2023-06-19T08:22:44;20.70;99.90
48988;DHT22;34799;51.440;-2.534;2023-06-19T08:25:12;20.80;99.90
48988;DHT22;34799;51.440;-2.534;2023-06-19T08:27:39;20.90;99.90
48988;DHT22;34799;51.440;-2.534;2023-06-19T08:30:06;20.90;99.90
48988;DHT22;34799;51.440;-2.534;2023-06-19T08:32:33;20.80;99.90
48988;DHT22;34799;51.440;-2.534;2023-06-19T08:35:01;20.80;99.90
48988;DHT22;34799;51.440;-2.534;2023-06-19T08:37:29;20.80;99.90
48988;DHT22;34799;51.440;-2.534;2023-06-19T08:39:56;20.90;99.90
48988;DHT22;34799;51.440;-2.534;2023-06-19T08:42:23;21.00;99.90
48988;DHT22;34799;51.440;-2.534;2023-06-19T08:44:51;21.10;99.90
48988;DHT22;34799;51.440;-2.534;2023-06-19T08:47:18;21.30;99.90
48988;DHT22;34799;51.440;-2.534;2023-06-19T08:49:45;21.50;99.90
48988;DHT22;34799;51.440;-2.534;2023-06-19T08:52:12;21.60;99.90
48988;DHT22;34799;51.440;-2.534;2023-06-19T08:54:39;21.80;99.90
48988;DHT22;34799;51.440;-2.534;2023-06-19T08:57:10;22.00;99.90
48988;DHT22;34799;51.440;-2.534;2023-06-19T08:59:38;22.10;99.90
48988;DHT22;34799;51.440;-2.534;2023-06-19T09:02:06;22.00;99.90
48988;DHT22;34799;51.440;-2.534;2023-06-19T09:04:33;21.90;99.90
48988;DHT22;34799;51.440;-2.534;2023-06-19T09:07:02;21.70;99.90
48988;DHT22;34799;51.440;-2.534;2023-06-19T09:09:46;21.70;99.90
48988;DHT22;34799;51.440;-2.534;2023-06-19T09:12:14;21.60;99.90
48988;DHT22;34799;51.440;-2.534;2023-06-19T09:14:47;21.70;99.90
48988;DHT22;34799;51.440;-2.534;2023-06-19T09:17:20;21.90;99.90
48988;DHT22;34799;51.440;-2.534;2023-06-19T09:19:51;22.00;99.90
48988;DHT22;34799;51.440;-2.534;2023-06-19T09:22:21;22.10;99.90
48988;DHT22;34799;51.440;-2.534;2023-06-19T09:24:50;22.10;99.90
48988;DHT22;34799;51.440;-2.534;2023-06-19T09:27:19;22.20;99.90
48988;DHT22;34799;51.440;-2.534;2023-06-19T09:29:50;22.20;99.90
48988;DHT22;34799;51.440;-2.534;2023-06-19T09:32:20;22.20;99.90
48988;DHT22;34799;51.440;-2.534;2023-06-19T09:34:50;22.30;99.90
48988;DHT22;34799;51.440;-2.534;2023-06-19T09:37:31;22.40;99.90
48988;DHT22;34799;51.440;-2.534;2023-06-19T09:40:02;22.50;99.90
48988;DHT22;34799;51.440;-2.534;2023-06-19T09:42:40;22.60;99.90
48988;DHT22;34799;51.440;-2.534;2023-06-19T09:45:13;22.70;99.90
48988;DHT22;34799;51.440;-2.534;2023-06-19T09:47:47;22.90;99.90
48988;DHT22;34799;51.440;-2.534;2023-06-19T09:50:16;23.00;99.90
48988;DHT22;34799;51.440;-2.534;2023-06-19T09:52:49;23.00;99.90
48988;DHT22;34799;51.440;-2.534;2023-06-19T09:55:19;22.90;99.90
48988;DHT22;34799;51.440;-2.534;2023-06-19T09:57:52;22.90;99.90
48988;DHT22;34799;51.440;-2.534;2023-06-19T10:00:20;22.90;99.90
48988;DHT22;34799;51.440;-2.534;2023-06-19T10:02:55;22.90;99.90
48988;DHT22;34799;51.440;-2.534;2023-06-19T10:05:31;22.90;99.90
48988;DHT22;34799;51.440;-2.534;2023-06-19T10:07:58;22.90;99.90
48988;DHT22;34799;51.440;-2.534;2023-06-19T10:10:28;22.90;99.90
48988;DHT22;34799;51.440;-2.534;2023-06-19T10:12:58;22.90;99.90
48988;DHT22;34799;51.440;-2.534;2023-06-19T10:15:28;22.90;99.90
48988;DHT22;34799;51.440;-2.534;2023-06-19T10:18:05;22.80;99.90
48988;DHT22;34799;51.440;-2.534;2023-06-19T10:20:35;22.80;99.90
48988;DHT22;34799;51.440;-2.534;2023-06-19T10:23:20;22.80;99.90
48988;DHT22;34799;51.440;-2.534;2023-06-19T10:25:59;22.70;99.90
48988;DHT22;34799;51.440;-2.534;2023-06-19T10:28:34;22.70;99.90
48988;DHT22;34799;51.440;-2.534;2023-06-19T10:31:07;22.80;99.90
48988;DHT22;34799;51.440;-2.534;2023-06-19T10:33:36;22.80;99.90
48988;DHT22;34799;51.440;-2.534;2023-06-19T10:36:18;22.80;99.90
48988;DHT22;34799;51.440;-2.534;2023-06-19T10:38:46;22.80;99.90
48988;DHT22;34799;51.440;-2.534;2023-06-19T10:41:21;22.80;99.90
48988;DHT22;34799;51.440;-2.534;2023-06-19T10:44:06;22.70;99.90
48988;DHT22;34799;51.440;-2.534;2023-06-19T10:46:40;22.60;99.90
48988;DHT22;34799;51.440;-2.534;2023-06-19T10:49:08;22.60;99.90
48988;DHT22;34799;51.440;-2.534;2023-06-19T10:51:37;22.60;99.90
48988;DHT22;34799;51.440;-2.534;2023-06-19T10:54:05;22.50;99.90
48988;DHT22;34799;51.440;-2.534;2023-06-19T10:56:32;22.60;99.90
48988;DHT22;34799;51.440;-2.534;2023-06-19T10:59:06;22.70;99.90
48988;DHT22;34799;51.440;-2.534;2023-06-19T11:01:39;22.90;99.90
48988;DHT22;34799;51.440;-2.534;2023-06-19T11:04:08;23.10;99.90
48988;DHT22;34799;51.440;-2.534;2023-06-19T11:06:37;23.30;99.90
48988;DHT22;34799;51.440;-2.534;2023-06-19T11:09:06;23.40;99.90
48988;DHT22;34799;51.440;-2.534;2023-06-19T11:11:44;23.50;99.90
48988;DHT22;34799;51.440;-2.534;2023-06-19T11:14:13;23.60;99.90
48988;DHT22;34799;51.440;-2.534;2023-06-19T11:16:42;23.60;99.90
48988;DHT22;34799;51.440;-2.534;2023-06-19T11:19:13;23.60;99.90
48988;DHT22;34799;51.440;-2.534;2023-06-19T11:21:49;23.70;99.90
48988;DHT22;34799;51.440;-2.534;2023-06-19T11:24:17;23.80;99.90
48988;DHT22;34799;51.440;-2.534;2023-06-19T11:26:47;23.90;99.90
48988;DHT22;34799;51.440;-2.534;2023-06-19T11:29:22;24.00;99.90
48988;DHT22;34799;51.440;-2.534;2023-06-19T11:31:50;24.10;99.90
48988;DHT22;34799;51.440;-2.534;2023-06-19T11:34:17;24.10;99.90
48988;DHT22;34799;51.440;-2.534;2023-06-19T11:36:46;24.10;99.90
48988;DHT22;34799;51.440;-2.534;2023-06-19T11:39:16;24.10;99.90
48988;DHT22;34799;51.440;-2.534;2023-06-19T11:41:44;24.20;99.90
48988;DHT22;34799;51.440;-2.534;2023-06-19T11:44:11;24.30;99.90
48988;DHT22;34799;51.440;-2.534;2023-06-19T11:46:38;24.40;99.90
48988;DHT22;34799;51.440;-2.534;2023-06-19T11:51:40;24.50;99.90
48988;DHT22;34799;51.440;-2.534;2023-06-19T11:54:08;24.60;99.90
48988;DHT22;34799;51.440;-2.534;2023-06-19T11:56:37;24.60;99.90
48988;DHT22;34799;51.440;-2.534;2023-06-19T11:59:05;24.60;99.90
48988;DHT22;34799;51.440;-2.534;2023-06-19T12:01:33;24.50;99.90
48988;DHT22;34799;51.440;-2.534;2023-06-19T12:04:03;24.40;99.90
48988;DHT22;34799;51.440;-2.534;2023-06-19T12:06:30;24.40;99.80
48988;DHT22;34799;51.440;-2.534;2023-06-19T12:08:58;24.40;99.80
48988;DHT22;34799;51.440;-2.534;2023-06-19T12:11:25;24.40;99.90
48988;DHT22;34799;51.440;-2.534;2023-06-19T12:13:52;24.40;99.90
48988;DHT22;34799;51.440;-2.534;2023-06-19T12:16:20;24.30;99.90
48988;DHT22;34799;51.440;-2.534;2023-06-19T12:18:47;24.40;99.90
48988;DHT22;34799;51.440;-2.534;2023-06-19T12:21:14;24.50;99.80
48988;DHT22;34799;51.440;-2.534;2023-06-19T12:23:51;24.50;99.60
48988;DHT22;34799;51.440;-2.534;2023-06-19T12:26:18;24.50;99.70
48988;DHT22;34799;51.440;-2.534;2023-06-19T12:28:45;24.60;99.80
48988;DHT22;34799;51.440;-2.534;2023-06-19T12:31:12;24.90;99.50
48988;DHT22;34799;51.440;-2.534;2023-06-19T12:33:39;25.20;99.50
48988;DHT22;34799;51.440;-2.534;2023-06-19T12:36:10;25.40;99.50
48988;DHT22;34799;51.440;-2.534;2023-06-19T12:38:42;25.60;99.10
48988;DHT22;34799;51.440;-2.534;2023-06-19T12:41:12;25.60;99.00
48988;DHT22;34799;51.440;-2.534;2023-06-19T12:43:40;25.60;98.70
48988;DHT22;34799;51.440;-2.534;2023-06-19T12:46:07;25.70;98.20
48988;DHT22;34799;51.440;-2.534;2023-06-19T12:48:34;25.80;97.90
48988;DHT22;34799;51.440;-2.534;2023-06-19T12:51:01;25.80;98.10
48988;DHT22;34799;51.440;-2.534;2023-06-19T12:53:29;25.90;98.20
48988;DHT22;34799;51.440;-2.534;2023-06-19T12:55:57;26.10;97.70
48988;DHT22;34799;51.440;-2.534;2023-06-19T12:58:29;26.30;97.70
48988;DHT22;34799;51.440;-2.534;2023-06-19T13:00:56;26.40;97.60
48988;DHT22;34799;51.440;-2.534;2023-06-19T13:03:23;26.50;98.00
48988;DHT22;34799;51.440;-2.534;2023-06-19T13:05:50;26.70;97.50
48988;DHT22;34799;51.440;-2.534;2023-06-19T13:08:17;26.70;97.30
48988;DHT22;34799;51.440;-2.534;2023-06-19T13:10:44;26.70;97.10
48988;DHT22;34799;51.440;-2.534;2023-06-19T13:13:12;26.80;97.20
48988;DHT22;34799;51.440;-2.534;2023-06-19T13:15:39;26.80;96.40
48988;DHT22;34799;51.440;-2.534;2023-06-19T13:18:07;26.80;96.30
48988;DHT22;34799;51.440;-2.534;2023-06-19T13:20:34;26.70;96.50
48988;DHT22;34799;51.440;-2.534;2023-06-19T13:23:01;26.70;96.70
48988;DHT22;34799;51.440;-2.534;2023-06-19T13:25:28;26.70;96.40
48988;DHT22;34799;51.440;-2.534;2023-06-19T13:27:55;26.70;96.70
48988;DHT22;34799;51.440;-2.534;2023-06-19T13:30:22;26.80;96.50
48988;DHT22;34799;51.440;-2.534;2023-06-19T13:32:49;26.70;96.00
48988;DHT22;34799;51.440;-2.534;2023-06-19T13:35:16;26.90;95.70
48988;DHT22;34799;51.440;-2.534;2023-06-19T13:37:44;26.80;95.80
48988;DHT22;34799;51.440;-2.534;2023-06-19T13:40:11;27.00;95.90
48988;DHT22;34799;51.440;-2.534;2023-06-19T13:42:38;27.00;96.10
48988;DHT22;34799;51.440;-2.534;2023-06-19T13:45:06;27.00;95.90
48988;DHT22;34799;51.440;-2.534;2023-06-19T13:47:35;27.10;95.90
48988;DHT22;34799;51.440;-2.534;2023-06-19T13:50:03;27.10;95.70
48988;DHT22;34799;51.440;-2.534;2023-06-19T13:52:31;27.10;95.90
48988;DHT22;34799;51.440;-2.534;2023-06-19T13:54:58;27.10;95.60
48988;DHT22;34799;51.440;-2.534;2023-06-19T13:57:25;27.20;95.50
48988;DHT22;34799;51.440;-2.534;2023-06-19T13:59:52;27.30;94.90
48988;DHT22;34799;51.440;-2.534;2023-06-19T14:02:19;27.30;95.20
48988;DHT22;34799;51.440;-2.534;2023-06-19T14:04:55;27.50;95.00
48988;DHT22;34799;51.440;-2.534;2023-06-19T14:07:25;27.50;95.10
48988;DHT22;34799;51.440;-2.534;2023-06-19T14:09:57;27.50;95.00
48988;DHT22;34799;51.440;-2.534;2023-06-19T14:12:27;27.50;94.70
48988;DHT22;34799;51.440;-2.534;2023-06-19T14:14:54;27.50;94.90
48988;DHT22;34799;51.440;-2.534;2023-06-19T14:17:24;27.60;94.60
48988;DHT22;34799;51.440;-2.534;2023-06-19T14:19:51;27.60;94.60
48988;DHT22;34799;51.440;-2.534;2023-06-19T14:22:19;27.80;94.30
48988;DHT22;34799;51.440;-2.534;2023-06-19T14:24:46;28.00;94.20
48988;DHT22;34799;51.440;-2.534;2023-06-19T14:27:13;28.10;93.90
48988;DHT22;34799;51.440;-2.534;2023-06-19T14:29:40;28.10;94.00
48988;DHT22;34799;51.440;-2.534;2023-06-19T14:32:07;28.10;94.00
48988;DHT22;34799;51.440;-2.534;2023-06-19T14:34:34;28.10;94.10
48988;DHT22;34799;51.440;-2.534;2023-06-19T14:37:01;28.10;94.10
48988;DHT22;34799;51.440;-2.534;2023-06-19T14:39:28;28.20;94.00
48988;DHT22;34799;51.440;-2.534;2023-06-19T14:41:55;28.20;93.90
48988;DHT22;34799;51.440;-2.534;2023-06-19T14:44:22;28.20;93.80
48988;DHT22;34799;51.440;-2.534;2023-06-19T14:46:49;28.20;94.30
48988;DHT22;34799;51.440;-2.534;2023-06-19T14:49:16;28.10;94.40
48988;DHT22;34799;51.440;-2.534;2023-06-19T14:51:44;28.30;94.10
48988;DHT22;34799;51.440;-2.534;2023-06-19T14:54:11;28.30;94.20
48988;DHT22;34799;51.440;-2.534;2023-06-19T14:56:38;28.40;93.70
48988;DHT22;34799;51.440;-2.534;2023-06-19T14:59:05;28.30;94.00
48988;DHT22;34799;51.440;-2.534;2023-06-19T15:01:32;28.40;94.30
48988;DHT22;34799;51.440;-2.534;2023-06-19T15:03:59;28.50;94.00
48988;DHT22;34799;51.440;-2.534;2023-06-19T15:06:26;28.60;93.80
48988;DHT22;34799;51.440;-2.534;2023-06-19T15:08:54;28.60;93.70
48988;DHT22;34799;51.440;-2.534;2023-06-19T15:11:21;28.70;93.90
48988;DHT22;34799;51.440;-2.534;2023-06-19T15:13:50;28.70;93.90
48988;DHT22;34799;51.440;-2.534;2023-06-19T15:16:17;28.80;93.70
48988;DHT22;34799;51.440;-2.534;2023-06-19T15:18:48;28.90;93.80
48988;DHT22;34799;51.440;-2.534;2023-06-19T15:21:15;29.00;93.30
48988;DHT22;34799;51.440;-2.534;2023-06-19T15:23:42;28.90;93.00
48988;DHT22;34799;51.440;-2.534;2023-06-19T15:26:10;28.90;93.60
48988;DHT22;34799;51.440;-2.534;2023-06-19T15:28:37;29.00;93.40
48988;DHT22;34799;51.440;-2.534;2023-06-19T15:31:05;28.90;93.40